TimeEST,TemperatureF,Dew PointF,Humidity,Sea Level PressureIn,VisibilityMPH,Wind Direction,Wind SpeedMPH,Gust SpeedMPH,PrecipitationIn,Events,Conditions,WindDirDegrees,DateUTC
12:51 AM,34.0,28.0,79,30.57,10.0,South,3.5,-,N/A,,Overcast,180,2012-11-14 05:51:00
1:51 AM,35.1,28.0,76,30.56,10.0,Calm,Calm,-,N/A,,Overcast,0,2012-11-14 06:51:00
2:51 AM,35.1,27.0,72,30.56,10.0,East,3.5,-,N/A,,Overcast,100,2012-11-14 07:51:00
3:51 AM,35.1,28.0,76,30.56,10.0,Calm,Calm,-,N/A,,Overcast,0,2012-11-14 08:51:00
4:51 AM,36.0,25.0,64,30.57,10.0,Calm,Calm,-,N/A,,Overcast,0,2012-11-14 09:51:00
5:51 AM,36.0,21.9,57,30.58,10.0,NW,4.6,-,N/A,,Overcast,310,2012-11-14 10:51:00
6:51 AM,36.0,23.0,59,30.59,10.0,Calm,Calm,-,N/A,,Overcast,0,2012-11-14 11:51:00
7:51 AM,35.1,27.0,72,30.60,10.0,Calm,Calm,-,N/A,,Overcast,0,2012-11-14 12:51:00
8:51 AM,36.0,26.1,67,30.61,10.0,Calm,Calm,-,N/A,,Overcast,0,2012-11-14 13:51:00
9:51 AM,37.0,25.0,62,30.60,10.0,SSE,3.5,-,N/A,,Overcast,160,2012-11-14 14:51:00
10:51 AM,37.0,25.0,62,30.61,10.0,SSE,3.5,-,N/A,,Overcast,150,2012-11-14 15:51:00
11:51 AM,37.0,26.1,65,30.59,10.0,Calm,Calm,-,N/A,,Overcast,0,2012-11-14 16:51:00
12:51 PM,37.4,26.6,65,30.54,10.0,ESE,3.5,-,N/A,,Overcast,110,2012-11-14 17:51:00
1:51 PM,37.9,26.1,62,30.55,10.0,East,6.9,-,N/A,,Overcast,80,2012-11-14 18:51:00
2:51 PM,37.9,26.1,62,30.53,10.0,ENE,8.1,-,N/A,,Overcast,60,2012-11-14 19:51:00
3:51 PM,37.9,25.0,60,30.53,10.0,North,3.5,-,N/A,,Partly Cloudy,10,2012-11-14 20:51:00
4:51 PM,37.4,24.8,60,30.49,10.0,NNE,4.6,-,N/A,,Clear,30,2012-11-14 21:51:00
5:51 PM,36.0,25.0,64,30.51,10.0,Calm,Calm,-,N/A,,Clear,0,2012-11-14 22:51:00
6:51 PM,33.1,26.1,75,30.50,10.0,SSW,3.5,-,N/A,,Clear,210,2012-11-14 23:51:00
7:51 PM,32.0,26.1,79,30.49,10.0,SE,3.5,-,N/A,,Clear,140,2012-11-15 00:51:00
8:51 PM,30.9,26.1,82,30.49,10.0,ESE,3.5,-,N/A,,Clear,110,2012-11-15 01:51:00
9:51 PM,33.1,24.1,70,30.48,10.0,East,5.8,-,N/A,,Clear,100,2012-11-15 02:51:00
10:51 PM,34.0,25.0,70,30.45,10.0,ESE,8.1,-,N/A,,Clear,120,2012-11-15 03:51:00
11:51 PM,33.1,24.1,70,30.45,10.0,ESE,6.9,-,N/A,,Clear,120,2012-11-15 04:51:00